sensor_id;sensor_type;location;lat;lon;timestamp;pressure;altitude;pressure_sealevel;temperature;humidity
51468;BME280;37545;45.302;-122.946;2023-05-22T00:00:53;101626.44;;;20.75;42.35
51468;BME280;37545;45.302;-122.946;2023-05-22T00:03:21;101636.03;;;20.53;42.19
51468;BME280;37545;45.302;-122.946;2023-05-22T00:05:53;101644.75;;;20.40;43.72
51468;BME280;37545;45.302;-122.946;2023-05-22T00:08:24;101644.69;;;20.21;43.04
51468;BME280;37545;45.302;-122.946;2023-05-22T00:10:52;101643.75;;;20.10;43.41
51468;BME280;37545;45.302;-122.946;2023-05-22T00:13:21;101644.56;;;19.94;43.16
51468;BME280;37545;45.302;-122.946;2023-05-22T00:15:49;101641.00;;;19.79;43.92
51468;BME280;37545;45.302;-122.946;2023-05-22T00:18:18;101646.13;;;19.67;43.71
51468;BME280;37545;45.302;-122.946;2023-05-22T00:20:46;101636.44;;;19.58;44.15
51468;BME280;37545;45.302;-122.946;2023-05-22T00:23:18;101639.06;;;19.57;44.72
51468;BME280;37545;45.302;-122.946;2023-05-22T00:25:47;101644.28;;;19.54;43.83
51468;BME280;37545;45.302;-122.946;2023-05-22T00:28:16;101647.75;;;19.51;44.57
51468;BME280;37545;45.302;-122.946;2023-05-22T00:30:45;101646.00;;;19.45;43.70
51468;BME280;37545;45.302;-122.946;2023-05-22T00:33:13;101646.84;;;19.46;44.26
51468;BME280;37545;45.302;-122.946;2023-05-22T00:35:42;101648.63;;;19.49;43.22
51468;BME280;37545;45.302;-122.946;2023-05-22T00:38:28;101639.91;;;19.50;44.45
51468;BME280;37545;45.302;-122.946;2023-05-22T00:40:58;101638.13;;;19.50;43.80
51468;BME280;37545;45.302;-122.946;2023-05-22T00:43:26;101638.13;;;19.49;45.12
51468;BME280;37545;45.302;-122.946;2023-05-22T00:45:55;101649.50;;;19.51;45.41
51468;BME280;37545;45.302;-122.946;2023-05-22T00:48:24;101645.13;;;19.51;44.65
51468;BME280;37545;45.302;-122.946;2023-05-22T00:50:53;101640.75;;;19.49;42.77
51468;BME280;37545;45.302;-122.946;2023-05-22T00:53:24;101645.09;;;19.43;43.38
51468;BME280;37545;45.302;-122.946;2023-05-22T00:55:56;101645.94;;;19.39;44.15
51468;BME280;37545;45.302;-122.946;2023-05-22T00:58:26;101642.34;;;19.28;43.03
51468;BME280;37545;45.302;-122.946;2023-05-22T01:00:55;101642.31;;;19.23;43.74
51468;BME280;37545;45.302;-122.946;2023-05-22T01:03:24;101641.41;;;19.21;45.17
51468;BME280;37545;45.302;-122.946;2023-05-22T01:05:54;101638.81;;;19.23;44.64
51468;BME280;37545;45.302;-122.946;2023-05-22T01:08:23;101634.44;;;19.23;44.91
51468;BME280;37545;45.302;-122.946;2023-05-22T01:10:55;101632.69;;;19.21;45.00
51468;BME280;37545;45.302;-122.946;2023-05-22T01:13:28;101630.94;;;19.20;45.36
51468;BME280;37545;45.302;-122.946;2023-05-22T01:16:04;101634.41;;;19.17;44.46
51468;BME280;37545;45.302;-122.946;2023-05-22T01:18:42;101630.91;;;19.15;44.79
51468;BME280;37545;45.302;-122.946;2023-05-22T01:21:18;101630.00;;;19.15;45.31
51468;BME280;37545;45.302;-122.946;2023-05-22T01:27:38;101641.28;;;19.01;45.19
51468;BME280;37545;45.302;-122.946;2023-05-22T01:30:42;101634.25;;;18.99;44.09
51468;BME280;37545;45.302;-122.946;2023-05-22T01:33:14;101636.81;;;18.94;44.19
51468;BME280;37545;45.302;-122.946;2023-05-22T01:35:46;101641.16;;;18.91;43.80
51468;BME280;37545;45.302;-122.946;2023-05-22T01:38:16;101635.88;;;18.86;44.79
51468;BME280;37545;45.302;-122.946;2023-05-22T01:40:46;101636.72;;;18.82;45.11
51468;BME280;37545;45.302;-122.946;2023-05-22T01:43:15;101635.72;;;18.75;43.12
51468;BME280;37545;45.302;-122.946;2023-05-22T01:45:46;101634.84;;;18.72;42.53
51468;BME280;37545;45.302;-122.946;2023-05-22T01:48:15;101638.22;;;18.61;43.30
51468;BME280;37545;45.302;-122.946;2023-05-22T01:50:44;101643.41;;;18.57;43.80
51468;BME280;37545;45.302;-122.946;2023-05-22T01:53:21;101645.09;;;18.50;44.18
51468;BME280;37545;45.302;-122.946;2023-05-22T01:55:55;101649.41;;;18.48;44.31
51468;BME280;37545;45.302;-122.946;2023-05-22T01:58:28;101655.47;;;18.41;43.75
51468;BME280;37545;45.302;-122.946;2023-05-22T02:01:00;101653.63;;;18.34;43.78
51468;BME280;37545;45.302;-122.946;2023-05-22T02:03:31;101657.13;;;18.33;43.75
51468;BME280;37545;45.302;-122.946;2023-05-22T02:06:05;101653.50;;;18.21;43.38
51468;BME280;37545;45.302;-122.946;2023-05-22T02:08:35;101656.09;;;18.20;44.95
51468;BME280;37545;45.302;-122.946;2023-05-22T02:11:06;101651.69;;;18.17;44.94
51468;BME280;37545;45.302;-122.946;2023-05-22T02:13:37;101653.44;;;18.18;44.59
51468;BME280;37545;45.302;-122.946;2023-05-22T02:16:07;101641.13;;;18.10;44.58
51468;BME280;37545;45.302;-122.946;2023-05-22T02:18:37;101660.38;;;18.13;44.21
51468;BME280;37545;45.302;-122.946;2023-05-22T02:21:07;101655.03;;;18.07;44.09
51468;BME280;37545;45.302;-122.946;2023-05-22T02:23:38;101653.25;;;18.03;44.46
51468;BME280;37545;45.302;-122.946;2023-05-22T02:26:07;101654.09;;;18.00;43.64
51468;BME280;37545;45.302;-122.946;2023-05-22T02:28:36;101661.06;;;18.00;43.16
51468;BME280;37545;45.302;-122.946;2023-05-22T02:31:06;101664.47;;;17.91;42.71
51468;BME280;37545;45.302;-122.946;2023-05-22T02:33:35;101670.53;;;17.90;44.28
51468;BME280;37545;45.302;-122.946;2023-05-22T02:36:03;101672.38;;;17.97;43.21
51468;BME280;37545;45.302;-122.946;2023-05-22T02:38:36;101664.63;;;18.04;43.71
51468;BME280;37545;45.302;-122.946;2023-05-22T02:41:04;101664.59;;;18.02;42.90
51468;BME280;37545;45.302;-122.946;2023-05-22T02:43:33;101674.22;;;18.05;42.50
51468;BME280;37545;45.302;-122.946;2023-05-22T02:46:02;101679.44;;;18.03;43.58
51468;BME280;37545;45.302;-122.946;2023-05-22T02:48:32;101684.69;;;18.03;42.96
51468;BME280;37545;45.302;-122.946;2023-05-22T02:51:00;101677.72;;;18.04;44.12
51468;BME280;37545;45.302;-122.946;2023-05-22T02:53:29;101677.75;;;18.08;43.21
51468;BME280;37545;45.302;-122.946;2023-05-22T02:55:58;101675.16;;;18.08;41.25
51468;BME280;37545;45.302;-122.946;2023-05-22T02:58:27;101677.69;;;18.02;40.75
51468;BME280;37545;45.302;-122.946;2023-05-22T03:00:55;101681.97;;;17.97;41.75
51468;BME280;37545;45.302;-122.946;2023-05-22T03:03:24;101677.59;;;17.94;41.28
51468;BME280;37545;45.302;-122.946;2023-05-22T03:05:56;101688.00;;;17.90;41.38
51468;BME280;37545;45.302;-122.946;2023-05-22T03:08:31;101687.06;;;17.86;40.89
51468;BME280;37545;45.302;-122.946;2023-05-22T03:11:03;101681.78;;;17.83;42.23
51468;BME280;37545;45.302;-122.946;2023-05-22T03:13:32;101687.78;;;17.77;42.66
51468;BME280;37545;45.302;-122.946;2023-05-22T03:16:00;101685.03;;;17.70;41.13
51468;BME280;37545;45.302;-122.946;2023-05-22T03:18:29;101687.63;;;17.67;43.96
51468;BME280;37545;45.302;-122.946;2023-05-22T03:21:23;101682.22;;;17.56;41.94
51468;BME280;37545;45.302;-122.946;2023-05-22T03:24:20;101690.94;;;17.55;42.56
51468;BME280;37545;45.302;-122.946;2023-05-22T03:26:48;101693.47;;;17.50;43.29
51468;BME280;37545;45.302;-122.946;2023-05-22T03:29:17;101693.41;;;17.46;42.69
51468;BME280;37545;45.302;-122.946;2023-05-22T03:31:46;101699.44;;;17.42;42.05
51468;BME280;37545;45.302;-122.946;2023-05-22T03:34:14;101700.16;;;17.33;42.52
51468;BME280;37545;45.302;-122.946;2023-05-22T03:36:44;101706.19;;;17.29;42.48
51468;BME280;37545;45.302;-122.946;2023-05-22T03:39:13;101699.13;;;17.23;42.51
51468;BME280;37545;45.302;-122.946;2023-05-22T03:41:42;101702.53;;;17.19;43.00
51468;BME280;37545;45.302;-122.946;2023-05-22T03:44:10;101709.44;;;17.14;42.64
51468;BME280;37545;45.302;-122.946;2023-05-22T03:46:39;101709.34;;;17.11;43.97
51468;BME280;37545;45.302;-122.946;2023-05-22T03:49:07;101708.41;;;17.04;43.51
51468;BME280;37545;45.302;-122.946;2023-05-22T03:51:36;101711.72;;;16.95;43.03
51468;BME280;37545;45.302;-122.946;2023-05-22T03:54:06;101712.50;;;16.91;44.22
51468;BME280;37545;45.302;-122.946;2023-05-22T03:56:35;101715.91;;;16.87;44.25
51468;BME280;37545;45.302;-122.946;2023-05-22T03:59:04;101715.84;;;16.84;44.18
51468;BME280;37545;45.302;-122.946;2023-05-22T04:01:33;101714.94;;;16.82;43.90
51468;BME280;37545;45.302;-122.946;2023-05-22T04:04:04;101713.94;;;16.77;43.74
51468;BME280;37545;45.302;-122.946;2023-05-22T04:06:33;101726.09;;;16.75;44.40
51468;BME280;37545;45.302;-122.946;2023-05-22T04:09:10;101729.50;;;16.71;43.86
51468;BME280;37545;45.302;-122.946;2023-05-22T04:11:39;101727.66;;;16.67;44.90
51468;BME280;37545;45.302;-122.946;2023-05-22T04:14:08;101740.63;;;16.61;44.93
51468;BME280;37545;45.302;-122.946;2023-05-22T04:16:37;101745.75;;;16.56;44.83
51468;BME280;37545;45.302;-122.946;2023-05-22T04:19:05;101747.41;;;16.52;44.68
51468;BME280;37545;45.302;-122.946;2023-05-22T04:21:34;101752.50;;;16.46;44.88
51468;BME280;37545;45.302;-122.946;2023-05-22T04:24:04;101753.28;;;16.41;44.95
51468;BME280;37545;45.302;-122.946;2023-05-22T04:26:36;101757.53;;;16.36;45.46
51468;BME280;37545;45.302;-122.946;2023-05-22T04:29:05;101752.09;;;16.28;45.21
51468;BME280;37545;45.302;-122.946;2023-05-22T04:31:39;101758.97;;;16.23;45.28
51468;BME280;37545;45.302;-122.946;2023-05-22T04:34:10;101738.53;;;16.05;45.83
51468;BME280;37545;45.302;-122.946;2023-05-22T04:36:39;101759.47;;;16.06;47.45
51468;BME280;37545;45.302;-122.946;2023-05-22T04:39:10;101770.56;;;15.98;46.96
51468;BME280;37545;45.302;-122.946;2023-05-22T04:41:41;101771.28;;;15.90;47.98
51468;BME280;37545;45.302;-122.946;2023-05-22T04:44:11;101771.09;;;15.83;48.04
51468;BME280;37545;45.302;-122.946;2023-05-22T04:46:40;101771.75;;;15.74;49.08
51468;BME280;37545;45.302;-122.946;2023-05-22T04:49:09;101784.56;;;15.66;49.12
51468;BME280;37545;45.302;-122.946;2023-05-22T04:51:38;101789.66;;;15.60;49.82
51468;BME280;37545;45.302;-122.946;2023-05-22T04:54:06;101789.41;;;15.51;50.06
51468;BME280;37545;45.302;-122.946;2023-05-22T04:56:35;101792.78;;;15.47;50.05
51468;BME280;37545;45.302;-122.946;2023-05-22T04:59:05;101787.38;;;15.41;50.51
51468;BME280;37545;45.302;-122.946;2023-05-22T05:01:35;101799.44;;;15.36;51.30
51468;BME280;37545;45.302;-122.946;2023-05-22T05:04:03;101791.41;;;15.28;51.04
51468;BME280;37545;45.302;-122.946;2023-05-22T05:06:32;101799.13;;;15.23;51.08
51468;BME280;37545;45.302;-122.946;2023-05-22T05:09:03;101805.84;;;15.15;51.37
51468;BME280;37545;45.302;-122.946;2023-05-22T05:11:31;101807.47;;;15.12;52.14
51468;BME280;37545;45.302;-122.946;2023-05-22T05:14:00;101817.75;;;15.07;52.53
51468;BME280;37545;45.302;-122.946;2023-05-22T05:16:30;101812.41;;;15.01;52.56
51468;BME280;37545;45.302;-122.946;2023-05-22T05:18:59;101796.25;;;14.82;52.63
51468;BME280;37545;45.302;-122.946;2023-05-22T05:21:29;101810.19;;;14.84;53.56
51468;BME280;37545;45.302;-122.946;2023-05-22T05:23:57;101813.53;;;14.80;53.58
51468;BME280;37545;45.302;-122.946;2023-05-22T05:26:26;101815.16;;;14.75;54.01
51468;BME280;37545;45.302;-122.946;2023-05-22T05:28:55;101813.16;;;14.68;53.50
51468;BME280;37545;45.302;-122.946;2023-05-22T05:31:23;101810.41;;;14.62;54.46
51468;BME280;37545;45.302;-122.946;2023-05-22T05:33:53;101815.50;;;14.59;54.81
51468;BME280;37545;45.302;-122.946;2023-05-22T05:36:23;101818.03;;;14.56;54.63
51468;BME280;37545;45.302;-122.946;2023-05-22T05:38:52;101813.50;;;14.50;54.95
51468;BME280;37545;45.302;-122.946;2023-05-22T05:41:21;101810.78;;;14.47;55.59
51468;BME280;37545;45.302;-122.946;2023-05-22T05:43:50;101810.63;;;14.42;56.62
51468;BME280;37545;45.302;-122.946;2023-05-22T05:46:19;101804.47;;;14.39;55.77
51468;BME280;37545;45.302;-122.946;2023-05-22T05:48:47;101818.22;;;14.35;56.57
51468;BME280;37545;45.302;-122.946;2023-05-22T05:51:17;101818.13;;;14.32;55.88
51468;BME280;37545;45.302;-122.946;2023-05-22T05:53:47;101819.66;;;14.25;56.55
51468;BME280;37545;45.302;-122.946;2023-05-22T05:56:16;101820.31;;;14.18;56.18
51468;BME280;37545;45.302;-122.946;2023-05-22T05:58:44;101821.03;;;14.14;56.38
51468;BME280;37545;45.302;-122.946;2023-05-22T06:01:15;101812.25;;;14.10;56.63
51468;BME280;37545;45.302;-122.946;2023-05-22T06:03:44;101813.75;;;14.03;56.87
51468;BME280;37545;45.302;-122.946;2023-05-22T06:06:12;101812.66;;;13.97;56.59
51468;BME280;37545;45.302;-122.946;2023-05-22T06:08:44;101822.94;;;13.92;57.00
51468;BME280;37545;45.302;-122.946;2023-05-22T06:11:13;101814.19;;;13.90;57.21
51468;BME280;37545;45.302;-122.946;2023-05-22T06:13:41;101821.97;;;13.89;57.86
51468;BME280;37545;45.302;-122.946;2023-05-22T06:16:10;101816.59;;;13.84;58.24
51468;BME280;37545;45.302;-122.946;2023-05-22T06:18:39;101813.84;;;13.79;58.18
51468;BME280;37545;45.302;-122.946;2023-05-22T06:21:07;101820.66;;;13.76;58.66
51468;BME280;37545;45.302;-122.946;2023-05-22T06:23:36;101816.19;;;13.72;58.59
51468;BME280;37545;45.302;-122.946;2023-05-22T06:26:06;101819.53;;;13.68;59.26
51468;BME280;37545;45.302;-122.946;2023-05-22T06:28:35;101816.72;;;13.61;59.96
51468;BME280;37545;45.302;-122.946;2023-05-22T06:31:04;101819.09;;;13.55;60.69
51468;BME280;37545;45.302;-122.946;2023-05-22T06:33:34;101820.72;;;13.52;60.21
51468;BME280;37545;45.302;-122.946;2023-05-22T06:36:03;101825.03;;;13.51;59.93
51468;BME280;37545;45.302;-122.946;2023-05-22T06:38:32;101825.03;;;13.51;60.34
51468;BME280;37545;45.302;-122.946;2023-05-22T06:41:00;101821.50;;;13.49;60.42
51468;BME280;37545;45.302;-122.946;2023-05-22T06:43:31;101818.91;;;13.49;61.47
51468;BME280;37545;45.302;-122.946;2023-05-22T06:46:01;101821.19;;;13.40;61.84
51468;BME280;37545;45.302;-122.946;2023-05-22T06:48:33;101823.94;;;13.45;62.22
51468;BME280;37545;45.302;-122.946;2023-05-22T06:51:02;101833.44;;;13.44;62.56
51468;BME280;37545;45.302;-122.946;2023-05-22T06:53:31;101831.59;;;13.40;62.63
51468;BME280;37545;45.302;-122.946;2023-05-22T06:55:59;101837.59;;;13.39;62.70
51468;BME280;37545;45.302;-122.946;2023-05-22T06:58:30;101839.22;;;13.35;62.88
51468;BME280;37545;45.302;-122.946;2023-05-22T07:00:58;101840.81;;;13.32;63.10
51468;BME280;37545;45.302;-122.946;2023-05-22T07:03:27;101843.47;;;13.33;62.94
51468;BME280;37545;45.302;-122.946;2023-05-22T07:05:55;101843.50;;;13.35;62.83
51468;BME280;37545;45.302;-122.946;2023-05-22T07:08:24;101840.09;;;13.36;63.44
51468;BME280;37545;45.302;-122.946;2023-05-22T07:10:53;101837.50;;;13.36;63.88
51468;BME280;37545;45.302;-122.946;2023-05-22T07:13:22;101844.47;;;13.37;63.95
51468;BME280;37545;45.302;-122.946;2023-05-22T07:15:52;101847.78;;;13.33;65.24
51468;BME280;37545;45.302;-122.946;2023-05-22T07:18:20;101848.53;;;13.29;65.44
51468;BME280;37545;45.302;-122.946;2023-05-22T07:20:49;101850.06;;;13.25;66.27
51468;BME280;37545;45.302;-122.946;2023-05-22T07:23:17;101856.16;;;13.26;65.71
51468;BME280;37545;45.302;-122.946;2023-05-22T07:25:46;101851.94;;;13.28;67.63
51468;BME280;37545;45.302;-122.946;2023-05-22T07:28:14;101850.28;;;13.30;67.65
51468;BME280;37545;45.302;-122.946;2023-05-22T07:30:43;101846.81;;;13.31;68.02
51468;BME280;37545;45.302;-122.946;2023-05-22T07:33:13;101844.28;;;13.32;67.74
51468;BME280;37545;45.302;-122.946;2023-05-22T07:35:42;101844.44;;;13.35;67.74
51468;BME280;37545;45.302;-122.946;2023-05-22T07:38:10;101835.84;;;13.38;67.20
51468;BME280;37545;45.302;-122.946;2023-05-22T07:40:39;101840.09;;;13.36;65.85
51468;BME280;37545;45.302;-122.946;2023-05-22T07:43:08;101844.44;;;13.35;65.68
51468;BME280;37545;45.302;-122.946;2023-05-22T07:45:36;101844.44;;;13.35;65.98
51468;BME280;37545;45.302;-122.946;2023-05-22T07:48:05;101835.72;;;13.35;66.22
51468;BME280;37545;45.302;-122.946;2023-05-22T07:50:35;101840.09;;;13.36;65.92
51468;BME280;37545;45.302;-122.946;2023-05-22T07:53:04;101838.47;;;13.39;66.76
51468;BME280;37545;45.302;-122.946;2023-05-22T07:55:33;101835.78;;;13.36;66.21
51468;BME280;37545;45.302;-122.946;2023-05-22T07:58:02;101835.84;;;13.38;66.69
51468;BME280;37545;45.302;-122.946;2023-05-22T08:00:30;101834.84;;;13.34;67.41
51468;BME280;37545;45.302;-122.946;2023-05-22T08:02:59;101838.22;;;13.32;66.51
51468;BME280;37545;45.302;-122.946;2023-05-22T08:05:28;101836.44;;;13.31;65.25
51468;BME280;37545;45.302;-122.946;2023-05-22T08:07:58;101843.50;;;13.35;65.09
51468;BME280;37545;45.302;-122.946;2023-05-22T08:10:28;101843.50;;;13.35;63.22
51468;BME280;37545;45.302;-122.946;2023-05-22T08:12:56;101840.97;;;13.36;64.21
51468;BME280;37545;45.302;-122.946;2023-05-22T08:15:27;101840.09;;;13.36;64.08
51468;BME280;37545;45.302;-122.946;2023-05-22T08:17:56;101837.50;;;13.36;65.08
51468;BME280;37545;45.302;-122.946;2023-05-22T08:20:24;101840.19;;;13.39;67.31
51468;BME280;37545;45.302;-122.946;2023-05-22T08:23:02;101840.19;;;13.39;65.70
51468;BME280;37545;45.302;-122.946;2023-05-22T08:25:30;101843.66;;;13.38;64.55
51468;BME280;37545;45.302;-122.946;2023-05-22T08:27:59;101842.00;;;13.40;64.15
51468;BME280;37545;45.302;-122.946;2023-05-22T08:30:27;101849.97;;;13.46;64.35
51468;BME280;37545;45.302;-122.946;2023-05-22T08:32:56;101848.38;;;13.50;65.02
51468;BME280;37545;45.302;-122.946;2023-05-22T08:35:25;101840.75;;;13.54;65.21
51468;BME280;37545;45.302;-122.946;2023-05-22T08:37:53;101847.69;;;13.55;65.59
51468;BME280;37545;45.302;-122.946;2023-05-22T08:40:23;101837.28;;;13.54;66.11
51468;BME280;37545;45.302;-122.946;2023-05-22T08:42:55;101846.03;;;13.57;64.36
51468;BME280;37545;45.302;-122.946;2023-05-22T08:45:25;101839.19;;;13.59;62.34
51468;BME280;37545;45.302;-122.946;2023-05-22T08:47:56;101843.50;;;13.59;63.17
51468;BME280;37545;45.302;-122.946;2023-05-22T08:50:27;101847.84;;;13.60;62.67
51468;BME280;37545;45.302;-122.946;2023-05-22T08:52:56;101845.25;;;13.60;63.31
51468;BME280;37545;45.302;-122.946;2023-05-22T08:55:30;101840.94;;;13.60;63.23
51468;BME280;37545;45.302;-122.946;2023-05-22T08:57:59;101847.94;;;13.61;63.26
51468;BME280;37545;45.302;-122.946;2023-05-22T09:00:28;101842.72;;;13.61;63.69
51468;BME280;37545;45.302;-122.946;2023-05-22T09:02:57;101841.88;;;13.62;63.93
51468;BME280;37545;45.302;-122.946;2023-05-22T09:05:26;101844.47;;;13.62;62.68
51468;BME280;37545;45.302;-122.946;2023-05-22T09:07:55;101842.72;;;13.61;62.71
51468;BME280;37545;45.302;-122.946;2023-05-22T09:10:23;101841.00;;;13.62;64.07
51468;BME280;37545;45.302;-122.946;2023-05-22T09:13:04;101849.59;;;13.59;64.69
51468;BME280;37545;45.302;-122.946;2023-05-22T09:15:35;101844.28;;;13.56;67.19
51468;BME280;37545;45.302;-122.946;2023-05-22T09:18:04;101842.25;;;13.48;69.41
51468;BME280;37545;45.302;-122.946;2023-05-22T09:20:37;101835.84;;;13.38;70.18
51468;BME280;37545;45.302;-122.946;2023-05-22T09:23:15;101836.56;;;13.34;70.44
51468;BME280;37545;45.302;-122.946;2023-05-22T09:25:45;101837.34;;;13.31;69.59
51468;BME280;37545;45.302;-122.946;2023-05-22T09:28:15;101844.34;;;13.34;70.36
51468;BME280;37545;45.302;-122.946;2023-05-22T09:30:47;101846.13;;;13.35;70.52
51468;BME280;37545;45.302;-122.946;2023-05-22T09:33:16;101847.03;;;13.35;70.92
51468;BME280;37545;45.302;-122.946;2023-05-22T09:35:46;101851.22;;;13.32;71.07
51468;BME280;37545;45.302;-122.946;2023-05-22T09:38:15;101846.81;;;13.31;71.55
51468;BME280;37545;45.302;-122.946;2023-05-22T09:40:44;101846.81;;;13.31;71.96
51468;BME280;37545;45.302;-122.946;2023-05-22T09:43:18;101849.44;;;13.31;71.07
51468;BME280;37545;45.302;-122.946;2023-05-22T09:45:47;101834.53;;;13.27;71.66
51468;BME280;37545;45.302;-122.946;2023-05-22T09:48:16;101838.84;;;13.26;71.40
51468;BME280;37545;45.302;-122.946;2023-05-22T09:50:46;101833.59;;;13.25;71.36
51468;BME280;37545;45.302;-122.946;2023-05-22T09:53:16;101832.66;;;13.23;71.51
51468;BME280;37545;45.302;-122.946;2023-05-22T09:55:46;101832.66;;;13.23;70.95
51468;BME280;37545;45.302;-122.946;2023-05-22T09:58:19;101828.34;;;13.23;71.36
51468;BME280;37545;45.302;-122.946;2023-05-22T10:00:53;101811.63;;;13.16;71.02
51468;BME280;37545;45.302;-122.946;2023-05-22T10:03:23;101824.16;;;13.27;71.50
51468;BME280;37545;45.302;-122.946;2023-05-22T10:05:53;101823.41;;;13.29;71.60
51468;BME280;37545;45.302;-122.946;2023-05-22T10:08:26;101822.53;;;13.29;71.29
51468;BME280;37545;45.302;-122.946;2023-05-22T10:10:54;101832.81;;;13.27;71.88
51468;BME280;37545;45.302;-122.946;2023-05-22T10:13:25;101826.75;;;13.27;71.89
51468;BME280;37545;45.302;-122.946;2023-05-22T10:15:55;101832.81;;;13.27;71.95
51468;BME280;37545;45.302;-122.946;2023-05-22T10:18:24;101834.69;;;13.30;72.83
51468;BME280;37545;45.302;-122.946;2023-05-22T10:20:53;101831.31;;;13.32;72.15
51468;BME280;37545;45.302;-122.946;2023-05-22T10:23:24;101826.16;;;13.34;71.45
51468;BME280;37545;45.302;-122.946;2023-05-22T10:25:54;101816.72;;;13.36;71.91
51468;BME280;37545;45.302;-122.946;2023-05-22T10:31:21;101833.34;;;13.41;72.64
51468;BME280;37545;45.302;-122.946;2023-05-22T10:33:58;101832.50;;;13.42;72.50
51468;BME280;37545;45.302;-122.946;2023-05-22T10:36:40;101835.09;;;13.42;72.46
51468;BME280;37545;45.302;-122.946;2023-05-22T10:39:28;101838.63;;;13.44;71.69
51468;BME280;37545;45.302;-122.946;2023-05-22T10:41:59;101841.31;;;13.46;71.57
51468;BME280;37545;45.302;-122.946;2023-05-22T10:44:32;101838.69;;;13.46;71.23
51468;BME280;37545;45.302;-122.946;2023-05-22T10:47:07;101839.56;;;13.45;71.26
51468;BME280;37545;45.302;-122.946;2023-05-22T10:49:42;101836.88;;;13.43;71.78
51468;BME280;37545;45.302;-122.946;2023-05-22T10:52:12;101832.56;;;13.44;71.51
51468;BME280;37545;45.302;-122.946;2023-05-22T10:54:42;101835.22;;;13.45;71.43
51468;BME280;37545;45.302;-122.946;2023-05-22T10:57:13;101830.91;;;13.46;71.63
51468;BME280;37545;45.302;-122.946;2023-05-22T10:59:46;101820.50;;;13.46;72.08
51468;BME280;37545;45.302;-122.946;2023-05-22T11:02:25;101824.69;;;13.42;71.14
51468;BME280;37545;45.302;-122.946;2023-05-22T11:08:08;101831.59;;;13.40;73.01
51468;BME280;37545;45.302;-122.946;2023-05-22T11:10:53;101831.59;;;13.40;72.47
51468;BME280;37545;45.302;-122.946;2023-05-22T11:13:27;101826.41;;;13.41;72.28
51468;BME280;37545;45.302;-122.946;2023-05-22T11:15:57;101830.75;;;13.41;72.58
51468;BME280;37545;45.302;-122.946;2023-05-22T11:18:28;101828.16;;;13.41;72.13
51468;BME280;37545;45.302;-122.946;2023-05-22T11:20:58;101834.22;;;13.41;72.72
51468;BME280;37545;45.302;-122.946;2023-05-22T11:23:27;101826.25;;;13.37;73.06
51468;BME280;37545;45.302;-122.946;2023-05-22T11:25:56;101829.81;;;13.39;72.36
51468;BME280;37545;45.302;-122.946;2023-05-22T11:28:50;101824.59;;;13.39;73.11
51468;BME280;37545;45.302;-122.946;2023-05-22T11:31:21;101831.59;;;13.40;72.94
51468;BME280;37545;45.302;-122.946;2023-05-22T11:33:53;101829.88;;;13.40;74.36
51468;BME280;37545;45.302;-122.946;2023-05-22T11:36:22;101833.25;;;13.38;75.60
51468;BME280;37545;45.302;-122.946;2023-05-22T11:38:56;101827.81;;;13.32;75.93
51468;BME280;37545;45.302;-122.946;2023-05-22T11:41:30;101821.41;;;13.24;75.95
51468;BME280;37545;45.302;-122.946;2023-05-22T11:43:59;101823.81;;;13.17;76.02
51468;BME280;37545;45.302;-122.946;2023-05-22T11:46:29;101821.00;;;13.11;76.82
51468;BME280;37545;45.302;-122.946;2023-05-22T11:48:57;101817.38;;;13.08;77.44
51468;BME280;37545;45.302;-122.946;2023-05-22T11:51:26;101815.63;;;13.07;77.66
51468;BME280;37545;45.302;-122.946;2023-05-22T11:53:56;101808.63;;;13.04;77.39
51468;BME280;37545;45.302;-122.946;2023-05-22T11:56:25;101819.81;;;13.03;76.93
51468;BME280;37545;45.302;-122.946;2023-05-22T11:58:53;101810.34;;;13.04;77.14
51468;BME280;37545;45.302;-122.946;2023-05-22T12:01:22;101810.50;;;13.08;77.44
51468;BME280;37545;45.302;-122.946;2023-05-22T12:03:52;101815.88;;;13.13;77.53
51468;BME280;37545;45.302;-122.946;2023-05-22T12:06:20;101818.63;;;13.17;76.98
51468;BME280;37545;45.302;-122.946;2023-05-22T12:08:49;101816.97;;;13.19;76.53
51468;BME280;37545;45.302;-122.946;2023-05-22T12:11:18;101817.00;;;13.21;76.26
51468;BME280;37545;45.302;-122.946;2023-05-22T12:13:46;101814.41;;;13.21;74.91
51468;BME280;37545;45.302;-122.946;2023-05-22T12:16:18;101817.06;;;13.23;74.26
51468;BME280;37545;45.302;-122.946;2023-05-22T12:18:58;101809.28;;;13.23;74.87
51468;BME280;37545;45.302;-122.946;2023-05-22T12:21:27;101821.31;;;13.20;73.01
51468;BME280;37545;45.302;-122.946;2023-05-22T12:23:56;101822.19;;;13.21;72.91
51468;BME280;37545;45.302;-122.946;2023-05-22T12:26:25;101822.16;;;13.19;72.63
51468;BME280;37545;45.302;-122.946;2023-05-22T12:28:53;101824.81;;;13.21;73.20
51468;BME280;37545;45.302;-122.946;2023-05-22T12:31:22;101806.44;;;13.16;74.13
51468;BME280;37545;45.302;-122.946;2023-05-22T12:33:53;101806.41;;;13.15;73.52
51468;BME280;37545;45.302;-122.946;2023-05-22T12:36:31;101819.72;;;13.24;72.25
51468;BME280;37545;45.302;-122.946;2023-05-22T12:39:01;101815.44;;;13.26;74.18
51468;BME280;37545;45.302;-122.946;2023-05-22T12:41:34;101813.75;;;13.27;74.87
51468;BME280;37545;45.302;-122.946;2023-05-22T12:44:03;101809.34;;;13.24;75.01
51468;BME280;37545;45.302;-122.946;2023-05-22T12:46:32;101808.44;;;13.24;73.75